sensor_id;sensor_type;location;lat;lon;timestamp;P1;durP1;ratioP1;P2;durP2;ratioP2
71965;SDS011;59836;52.132;5.442;2023-03-23T00:01:16;6.28;;;3.47;;
71965;SDS011;59836;52.132;5.442;2023-03-23T00:03:44;5.22;;;3.28;;
71965;SDS011;59836;52.132;5.442;2023-03-23T00:06:12;4.90;;;3.53;;
71965;SDS011;59836;52.132;5.442;2023-03-23T00:08:41;6.00;;;2.97;;
71965;SDS011;59836;52.132;5.442;2023-03-23T00:11:11;7.10;;;3.60;;
71965;SDS011;59836;52.132;5.442;2023-03-23T00:13:39;4.97;;;3.47;;
71965;SDS011;59836;52.132;5.442;2023-03-23T00:16:05;8.07;;;2.95;;
71965;SDS011;59836;52.132;5.442;2023-03-23T00:18:49;5.93;;;3.25;;
71965;SDS011;59836;52.132;5.442;2023-03-23T00:21:19;7.20;;;3.20;;
71965;SDS011;59836;52.132;5.442;2023-03-23T00:23:45;5.78;;;3.10;;
71965;SDS011;59836;52.132;5.442;2023-03-23T00:26:11;6.90;;;3.03;;
71965;SDS011;59836;52.132;5.442;2023-03-23T00:28:37;7.20;;;3.08;;
71965;SDS011;59836;52.132;5.442;2023-03-23T00:31:05;7.07;;;2.90;;
71965;SDS011;59836;52.132;5.442;2023-03-23T00:33:33;4.40;;;2.72;;
71965;SDS011;59836;52.132;5.442;2023-03-23T00:36:12;5.00;;;2.72;;
71965;SDS011;59836;52.132;5.442;2023-03-23T00:38:39;5.27;;;2.90;;
71965;SDS011;59836;52.132;5.442;2023-03-23T00:41:07;4.78;;;2.40;;
71965;SDS011;59836;52.132;5.442;2023-03-23T00:43:32;4.47;;;2.65;;
71965;SDS011;59836;52.132;5.442;2023-03-23T00:46:01;3.80;;;2.70;;
71965;SDS011;59836;52.132;5.442;2023-03-23T00:48:33;6.88;;;2.50;;
71965;SDS011;59836;52.132;5.442;2023-03-23T00:51:00;5.87;;;2.63;;
71965;SDS011;59836;52.132;5.442;2023-03-23T00:53:26;4.28;;;2.30;;
71965;SDS011;59836;52.132;5.442;2023-03-23T00:55:51;3.70;;;2.57;;
71965;SDS011;59836;52.132;5.442;2023-03-23T00:58:16;5.30;;;2.83;;
71965;SDS011;59836;52.132;5.442;2023-03-23T01:00:42;5.97;;;2.47;;
71965;SDS011;59836;52.132;5.442;2023-03-23T01:03:08;3.78;;;2.65;;
71965;SDS011;59836;52.132;5.442;2023-03-23T01:05:37;3.88;;;2.65;;
71965;SDS011;59836;52.132;5.442;2023-03-23T01:08:04;4.67;;;2.30;;
71965;SDS011;59836;52.132;5.442;2023-03-23T01:10:31;3.92;;;2.63;;
71965;SDS011;59836;52.132;5.442;2023-03-23T01:12:58;5.28;;;2.60;;
71965;SDS011;59836;52.132;5.442;2023-03-23T01:15:26;4.65;;;2.67;;
71965;SDS011;59836;52.132;5.442;2023-03-23T01:17:53;4.75;;;2.20;;
71965;SDS011;59836;52.132;5.442;2023-03-23T01:20:18;4.30;;;2.50;;
71965;SDS011;59836;52.132;5.442;2023-03-23T01:22:44;4.17;;;2.47;;
71965;SDS011;59836;52.132;5.442;2023-03-23T01:25:10;4.63;;;2.83;;
71965;SDS011;59836;52.132;5.442;2023-03-23T01:27:36;2.88;;;2.13;;
71965;SDS011;59836;52.132;5.442;2023-03-23T01:30:03;5.10;;;2.70;;
71965;SDS011;59836;52.132;5.442;2023-03-23T01:32:29;4.13;;;2.40;;
71965;SDS011;59836;52.132;5.442;2023-03-23T01:34:55;2.93;;;2.17;;
71965;SDS011;59836;52.132;5.442;2023-03-23T01:37:20;4.50;;;2.07;;
71965;SDS011;59836;52.132;5.442;2023-03-23T01:39:51;5.50;;;2.35;;
71965;SDS011;59836;52.132;5.442;2023-03-23T01:42:23;3.08;;;2.28;;
71965;SDS011;59836;52.132;5.442;2023-03-23T01:47:15;4.47;;;2.00;;
71965;SDS011;59836;52.132;5.442;2023-03-23T01:49:46;4.03;;;1.73;;
71965;SDS011;59836;52.132;5.442;2023-03-23T01:52:14;2.80;;;1.65;;
71965;SDS011;59836;52.132;5.442;2023-03-23T01:54:52;4.43;;;2.70;;
71965;SDS011;59836;52.132;5.442;2023-03-23T01:57:22;3.30;;;1.92;;
71965;SDS011;59836;52.132;5.442;2023-03-23T01:59:52;4.35;;;1.98;;
71965;SDS011;59836;52.132;5.442;2023-03-23T02:02:20;2.60;;;1.83;;
71965;SDS011;59836;52.132;5.442;2023-03-23T02:04:47;4.80;;;2.50;;
71965;SDS011;59836;52.132;5.442;2023-03-23T02:07:13;4.43;;;2.43;;
71965;SDS011;59836;52.132;5.442;2023-03-23T02:09:40;3.40;;;2.13;;
71965;SDS011;59836;52.132;5.442;2023-03-23T02:14:34;2.83;;;2.40;;
71965;SDS011;59836;52.132;5.442;2023-03-23T02:17:04;3.90;;;2.60;;
71965;SDS011;59836;52.132;5.442;2023-03-23T02:20:01;3.07;;;2.47;;
71965;SDS011;59836;52.132;5.442;2023-03-23T02:25:33;4.70;;;3.00;;
71965;SDS011;59836;52.132;5.442;2023-03-23T02:36:50;5.32;;;2.33;;
71965;SDS011;59836;52.132;5.442;2023-03-23T02:39:22;4.10;;;2.60;;
71965;SDS011;59836;52.132;5.442;2023-03-23T02:41:58;4.15;;;2.30;;
71965;SDS011;59836;52.132;5.442;2023-03-23T02:44:29;3.22;;;2.38;;
71965;SDS011;59836;52.132;5.442;2023-03-23T02:46:57;3.27;;;2.40;;
71965;SDS011;59836;52.132;5.442;2023-03-23T02:49:25;4.15;;;2.50;;
71965;SDS011;59836;52.132;5.442;2023-03-23T02:51:56;4.00;;;2.50;;
71965;SDS011;59836;52.132;5.442;2023-03-23T02:54:24;3.90;;;2.55;;
71965;SDS011;59836;52.132;5.442;2023-03-23T02:56:51;4.50;;;3.00;;
71965;SDS011;59836;52.132;5.442;2023-03-23T02:59:18;5.70;;;2.47;;
71965;SDS011;59836;52.132;5.442;2023-03-23T03:01:45;5.40;;;2.85;;
71965;SDS011;59836;52.132;5.442;2023-03-23T03:04:17;5.40;;;2.63;;
71965;SDS011;59836;52.132;5.442;2023-03-23T03:12:45;4.10;;;3.00;;
71965;SDS011;59836;52.132;5.442;2023-03-23T03:18:11;3.87;;;2.43;;
71965;SDS011;59836;52.132;5.442;2023-03-23T03:20:40;4.55;;;2.35;;
71965;SDS011;59836;52.132;5.442;2023-03-23T03:23:12;7.15;;;2.42;;
71965;SDS011;59836;52.132;5.442;2023-03-23T03:25:40;4.07;;;2.42;;
71965;SDS011;59836;52.132;5.442;2023-03-23T03:28:12;5.15;;;2.80;;
71965;SDS011;59836;52.132;5.442;2023-03-23T03:30:40;4.50;;;2.50;;
71965;SDS011;59836;52.132;5.442;2023-03-23T03:33:09;2.83;;;2.20;;
71965;SDS011;59836;52.132;5.442;2023-03-23T03:35:36;6.07;;;2.30;;
71965;SDS011;59836;52.132;5.442;2023-03-23T03:38:05;4.22;;;2.08;;
71965;SDS011;59836;52.132;5.442;2023-03-23T03:40:33;4.63;;;2.42;;
71965;SDS011;59836;52.132;5.442;2023-03-23T03:42:58;4.57;;;2.00;;
71965;SDS011;59836;52.132;5.442;2023-03-23T03:45:23;5.17;;;2.37;;
71965;SDS011;59836;52.132;5.442;2023-03-23T03:47:49;4.50;;;2.37;;
71965;SDS011;59836;52.132;5.442;2023-03-23T03:50:14;4.55;;;2.03;;
71965;SDS011;59836;52.132;5.442;2023-03-23T03:52:41;3.77;;;1.60;;
71965;SDS011;59836;52.132;5.442;2023-03-23T03:55:09;3.97;;;1.58;;
71965;SDS011;59836;52.132;5.442;2023-03-23T03:57:35;3.53;;;1.77;;
71965;SDS011;59836;52.132;5.442;2023-03-23T04:00:02;3.27;;;1.87;;
71965;SDS011;59836;52.132;5.442;2023-03-23T04:02:38;3.55;;;1.83;;
71965;SDS011;59836;52.132;5.442;2023-03-23T04:05:04;3.67;;;1.97;;
71965;SDS011;59836;52.132;5.442;2023-03-23T04:09:58;4.47;;;2.28;;
71965;SDS011;59836;52.132;5.442;2023-03-23T04:12:23;2.13;;;1.60;;
71965;SDS011;59836;52.132;5.442;2023-03-23T04:14:48;2.67;;;1.70;;
71965;SDS011;59836;52.132;5.442;2023-03-23T04:17:14;5.13;;;1.92;;
71965;SDS011;59836;52.132;5.442;2023-03-23T04:19:39;5.43;;;2.10;;
71965;SDS011;59836;52.132;5.442;2023-03-23T04:22:05;4.37;;;1.73;;
71965;SDS011;59836;52.132;5.442;2023-03-23T04:24:31;4.38;;;2.17;;
71965;SDS011;59836;52.132;5.442;2023-03-23T04:26:58;5.85;;;2.30;;
71965;SDS011;59836;52.132;5.442;2023-03-23T04:29:24;4.03;;;1.90;;
71965;SDS011;59836;52.132;5.442;2023-03-23T04:31:50;5.30;;;1.90;;
71965;SDS011;59836;52.132;5.442;2023-03-23T04:34:17;5.13;;;1.48;;
71965;SDS011;59836;52.132;5.442;2023-03-23T04:36:44;5.53;;;1.40;;
71965;SDS011;59836;52.132;5.442;2023-03-23T04:39:09;3.17;;;1.25;;
71965;SDS011;59836;52.132;5.442;2023-03-23T04:41:35;4.27;;;1.00;;
71965;SDS011;59836;52.132;5.442;2023-03-23T04:44:01;3.22;;;1.42;;
71965;SDS011;59836;52.132;5.442;2023-03-23T04:46:28;4.00;;;1.15;;
71965;SDS011;59836;52.132;5.442;2023-03-23T04:48:56;3.80;;;0.80;;
71965;SDS011;59836;52.132;5.442;2023-03-23T04:51:26;6.53;;;1.33;;
71965;SDS011;59836;52.132;5.442;2023-03-23T04:53:54;3.73;;;1.67;;
71965;SDS011;59836;52.132;5.442;2023-03-23T04:56:23;2.97;;;0.80;;
71965;SDS011;59836;52.132;5.442;2023-03-23T04:58:52;3.85;;;1.33;;
71965;SDS011;59836;52.132;5.442;2023-03-23T05:01:18;4.05;;;1.60;;
71965;SDS011;59836;52.132;5.442;2023-03-23T05:03:44;3.90;;;1.67;;
71965;SDS011;59836;52.132;5.442;2023-03-23T05:06:10;4.43;;;1.45;;
71965;SDS011;59836;52.132;5.442;2023-03-23T05:08:36;4.60;;;0.93;;
71965;SDS011;59836;52.132;5.442;2023-03-23T05:11:05;6.70;;;1.13;;
71965;SDS011;59836;52.132;5.442;2023-03-23T05:13:31;3.58;;;1.42;;
71965;SDS011;59836;52.132;5.442;2023-03-23T05:15:57;4.43;;;1.50;;
71965;SDS011;59836;52.132;5.442;2023-03-23T05:18:24;5.45;;;2.03;;
71965;SDS011;59836;52.132;5.442;2023-03-23T05:20:55;4.80;;;1.33;;
71965;SDS011;59836;52.132;5.442;2023-03-23T05:23:25;3.17;;;1.03;;
71965;SDS011;59836;52.132;5.442;2023-03-23T05:25:54;5.32;;;1.33;;
71965;SDS011;59836;52.132;5.442;2023-03-23T05:28:20;6.25;;;1.20;;
71965;SDS011;59836;52.132;5.442;2023-03-23T05:30:47;4.30;;;0.97;;
71965;SDS011;59836;52.132;5.442;2023-03-23T05:33:15;6.10;;;1.25;;
71965;SDS011;59836;52.132;5.442;2023-03-23T05:35:41;7.07;;;1.23;;
71965;SDS011;59836;52.132;5.442;2023-03-23T05:38:06;4.13;;;1.30;;
71965;SDS011;59836;52.132;5.442;2023-03-23T05:40:35;5.00;;;1.03;;
71965;SDS011;59836;52.132;5.442;2023-03-23T05:43:00;6.43;;;1.30;;
71965;SDS011;59836;52.132;5.442;2023-03-23T05:45:26;4.27;;;0.93;;
71965;SDS011;59836;52.132;5.442;2023-03-23T05:47:51;4.88;;;1.13;;
71965;SDS011;59836;52.132;5.442;2023-03-23T05:50:17;5.07;;;1.10;;
71965;SDS011;59836;52.132;5.442;2023-03-23T05:52:43;6.57;;;1.25;;
71965;SDS011;59836;52.132;5.442;2023-03-23T05:55:09;5.30;;;1.20;;
71965;SDS011;59836;52.132;5.442;2023-03-23T05:57:35;6.13;;;1.30;;
71965;SDS011;59836;52.132;5.442;2023-03-23T06:00:00;2.53;;;1.00;;
71965;SDS011;59836;52.132;5.442;2023-03-23T06:02:38;6.25;;;1.58;;
71965;SDS011;59836;52.132;5.442;2023-03-23T06:05:04;8.40;;;1.80;;
71965;SDS011;59836;52.132;5.442;2023-03-23T06:07:31;5.47;;;1.23;;
71965;SDS011;59836;52.132;5.442;2023-03-23T06:09:59;5.60;;;1.53;;
71965;SDS011;59836;52.132;5.442;2023-03-23T06:12:29;3.75;;;1.10;;
71965;SDS011;59836;52.132;5.442;2023-03-23T06:14:54;6.15;;;1.40;;
71965;SDS011;59836;52.132;5.442;2023-03-23T06:17:20;5.03;;;1.30;;
71965;SDS011;59836;52.132;5.442;2023-03-23T06:19:45;5.93;;;1.63;;
71965;SDS011;59836;52.132;5.442;2023-03-23T06:22:11;7.40;;;1.63;;
71965;SDS011;59836;52.132;5.442;2023-03-23T06:24:37;8.18;;;1.92;;
71965;SDS011;59836;52.132;5.442;2023-03-23T06:27:02;8.90;;;1.83;;
71965;SDS011;59836;52.132;5.442;2023-03-23T06:29:28;5.23;;;1.40;;
71965;SDS011;59836;52.132;5.442;2023-03-23T06:31:57;8.53;;;1.93;;
71965;SDS011;59836;52.132;5.442;2023-03-23T06:34:24;6.05;;;1.90;;
71965;SDS011;59836;52.132;5.442;2023-03-23T06:36:50;3.77;;;1.30;;
71965;SDS011;59836;52.132;5.442;2023-03-23T06:39:15;7.28;;;1.80;;
71965;SDS011;59836;52.132;5.442;2023-03-23T06:41:41;5.10;;;2.13;;
71965;SDS011;59836;52.132;5.442;2023-03-23T06:44:06;3.95;;;1.42;;
71965;SDS011;59836;52.132;5.442;2023-03-23T06:46:33;7.82;;;1.60;;
71965;SDS011;59836;52.132;5.442;2023-03-23T06:48:59;5.70;;;2.10;;
71965;SDS011;59836;52.132;5.442;2023-03-23T06:51:24;6.53;;;1.50;;
71965;SDS011;59836;52.132;5.442;2023-03-23T06:53:50;5.45;;;1.10;;
71965;SDS011;59836;52.132;5.442;2023-03-23T06:56:15;4.70;;;1.80;;
71965;SDS011;59836;52.132;5.442;2023-03-23T06:58:41;5.82;;;1.85;;
71965;SDS011;59836;52.132;5.442;2023-03-23T07:01:07;5.73;;;1.10;;
71965;SDS011;59836;52.132;5.442;2023-03-23T07:03:34;7.25;;;1.50;;
71965;SDS011;59836;52.132;5.442;2023-03-23T07:06:00;2.70;;;1.13;;
71965;SDS011;59836;52.132;5.442;2023-03-23T07:08:25;4.60;;;1.38;;
71965;SDS011;59836;52.132;5.442;2023-03-23T07:10:54;5.57;;;1.60;;
71965;SDS011;59836;52.132;5.442;2023-03-23T07:13:21;4.45;;;1.50;;
71965;SDS011;59836;52.132;5.442;2023-03-23T07:15:47;5.55;;;1.73;;
71965;SDS011;59836;52.132;5.442;2023-03-23T07:18:13;9.60;;;1.70;;
71965;SDS011;59836;52.132;5.442;2023-03-23T07:20:39;3.50;;;1.35;;
71965;SDS011;59836;52.132;5.442;2023-03-23T07:23:04;4.20;;;1.67;;
71965;SDS011;59836;52.132;5.442;2023-03-23T07:25:33;5.70;;;1.40;;
71965;SDS011;59836;52.132;5.442;2023-03-23T07:27:59;6.45;;;1.70;;
71965;SDS011;59836;52.132;5.442;2023-03-23T07:30:26;2.73;;;1.13;;
71965;SDS011;59836;52.132;5.442;2023-03-23T07:32:52;9.85;;;1.60;;
71965;SDS011;59836;52.132;5.442;2023-03-23T07:35:18;4.60;;;1.50;;
71965;SDS011;59836;52.132;5.442;2023-03-23T07:37:43;5.87;;;1.40;;
71965;SDS011;59836;52.132;5.442;2023-03-23T07:40:08;5.67;;;1.50;;
71965;SDS011;59836;52.132;5.442;2023-03-23T07:42:44;3.63;;;1.75;;
71965;SDS011;59836;52.132;5.442;2023-03-23T07:45:11;4.20;;;1.20;;
71965;SDS011;59836;52.132;5.442;2023-03-23T07:47:38;4.55;;;1.10;;
71965;SDS011;59836;52.132;5.442;2023-03-23T07:50:05;6.18;;;1.55;;
71965;SDS011;59836;52.132;5.442;2023-03-23T07:52:31;4.37;;;1.33;;
71965;SDS011;59836;52.132;5.442;2023-03-23T07:54:57;4.85;;;1.70;;
71965;SDS011;59836;52.132;5.442;2023-03-23T07:57:23;4.17;;;1.33;;
71965;SDS011;59836;52.132;5.442;2023-03-23T07:59:48;6.87;;;1.70;;
71965;SDS011;59836;52.132;5.442;2023-03-23T08:02:14;4.13;;;1.53;;
71965;SDS011;59836;52.132;5.442;2023-03-23T08:04:39;5.77;;;2.20;;
71965;SDS011;59836;52.132;5.442;2023-03-23T08:07:05;4.30;;;1.50;;
71965;SDS011;59836;52.132;5.442;2023-03-23T08:09:30;5.60;;;1.60;;
71965;SDS011;59836;52.132;5.442;2023-03-23T08:11:56;4.47;;;1.10;;
71965;SDS011;59836;52.132;5.442;2023-03-23T08:14:22;5.57;;;1.20;;
71965;SDS011;59836;52.132;5.442;2023-03-23T08:16:53;3.92;;;1.10;;
71965;SDS011;59836;52.132;5.442;2023-03-23T08:19:21;3.70;;;1.15;;
71965;SDS011;59836;52.132;5.442;2023-03-23T08:21:47;5.77;;;1.50;;
71965;SDS011;59836;52.132;5.442;2023-03-23T08:24:13;7.57;;;1.50;;
71965;SDS011;59836;52.132;5.442;2023-03-23T08:26:39;5.78;;;1.80;;
71965;SDS011;59836;52.132;5.442;2023-03-23T08:29:05;6.23;;;1.53;;
71965;SDS011;59836;52.132;5.442;2023-03-23T08:31:30;3.28;;;1.48;;
71965;SDS011;59836;52.132;5.442;2023-03-23T08:33:58;3.90;;;1.52;;
71965;SDS011;59836;52.132;5.442;2023-03-23T08:36:23;5.00;;;1.23;;
71965;SDS011;59836;52.132;5.442;2023-03-23T08:38:50;6.28;;;2.13;;
71965;SDS011;59836;52.132;5.442;2023-03-23T08:41:17;6.90;;;1.60;;
71965;SDS011;59836;52.132;5.442;2023-03-23T08:43:42;4.43;;;1.42;;
71965;SDS011;59836;52.132;5.442;2023-03-23T08:46:08;3.90;;;1.42;;
71965;SDS011;59836;52.132;5.442;2023-03-23T08:48:35;5.00;;;1.50;;
71965;SDS011;59836;52.132;5.442;2023-03-23T08:51:02;7.47;;;1.45;;
71965;SDS011;59836;52.132;5.442;2023-03-23T08:53:28;7.15;;;1.50;;
71965;SDS011;59836;52.132;5.442;2023-03-23T08:56:02;7.78;;;1.70;;
71965;SDS011;59836;52.132;5.442;2023-03-23T08:58:33;7.63;;;1.90;;
71965;SDS011;59836;52.132;5.442;2023-03-23T09:00:59;7.50;;;2.00;;
71965;SDS011;59836;52.132;5.442;2023-03-23T09:03:25;4.80;;;1.60;;
71965;SDS011;59836;52.132;5.442;2023-03-23T09:05:51;5.97;;;1.45;;
71965;SDS011;59836;52.132;5.442;2023-03-23T09:08:18;5.40;;;1.20;;
71965;SDS011;59836;52.132;5.442;2023-03-23T09:10:43;8.38;;;1.40;;
71965;SDS011;59836;52.132;5.442;2023-03-23T09:13:09;6.60;;;1.40;;
71965;SDS011;59836;52.132;5.442;2023-03-23T09:15:34;3.87;;;1.50;;
71965;SDS011;59836;52.132;5.442;2023-03-23T09:18:00;6.90;;;1.65;;
71965;SDS011;59836;52.132;5.442;2023-03-23T09:20:26;6.40;;;1.73;;
71965;SDS011;59836;52.132;5.442;2023-03-23T09:22:53;8.13;;;1.40;;
71965;SDS011;59836;52.132;5.442;2023-03-23T09:25:21;4.13;;;1.40;;
71965;SDS011;59836;52.132;5.442;2023-03-23T09:27:52;3.97;;;1.63;;
71965;SDS011;59836;52.132;5.442;2023-03-23T09:30:21;7.05;;;1.70;;
71965;SDS011;59836;52.132;5.442;2023-03-23T09:32:48;8.07;;;1.20;;
71965;SDS011;59836;52.132;5.442;2023-03-23T09:35:13;3.40;;;1.15;;
71965;SDS011;59836;52.132;5.442;2023-03-23T09:37:41;6.30;;;1.50;;
71965;SDS011;59836;52.132;5.442;2023-03-23T09:40:14;3.17;;;1.13;;
71965;SDS011;59836;52.132;5.442;2023-03-23T09:42:51;7.35;;;1.58;;
71965;SDS011;59836;52.132;5.442;2023-03-23T09:48:10;8.03;;;1.67;;
71965;SDS011;59836;52.132;5.442;2023-03-23T09:50:42;9.40;;;1.58;;
71965;SDS011;59836;52.132;5.442;2023-03-23T09:53:13;9.27;;;1.35;;
71965;SDS011;59836;52.132;5.442;2023-03-23T09:55:44;8.80;;;1.30;;
71965;SDS011;59836;52.132;5.442;2023-03-23T10:01:10;5.82;;;1.30;;
71965;SDS011;59836;52.132;5.442;2023-03-23T10:03:45;4.85;;;1.40;;
71965;SDS011;59836;52.132;5.442;2023-03-23T10:06:13;9.63;;;1.63;;
71965;SDS011;59836;52.132;5.442;2023-03-23T10:08:47;7.47;;;1.42;;
71965;SDS011;59836;52.132;5.442;2023-03-23T10:14:30;8.57;;;1.50;;
71965;SDS011;59836;52.132;5.442;2023-03-23T10:17:15;5.93;;;1.27;;
71965;SDS011;59836;52.132;5.442;2023-03-23T10:19:55;4.25;;;1.00;;
71965;SDS011;59836;52.132;5.442;2023-03-23T10:22:24;6.72;;;1.40;;
71965;SDS011;59836;52.132;5.442;2023-03-23T10:28:24;4.68;;;1.00;;
71965;SDS011;59836;52.132;5.442;2023-03-23T10:30:46;6.25;;;1.35;;
71965;SDS011;59836;52.132;5.442;2023-03-23T10:33:20;7.03;;;1.05;;
71965;SDS011;59836;52.132;5.442;2023-03-23T10:35:52;5.65;;;1.48;;
71965;SDS011;59836;52.132;5.442;2023-03-23T10:38:21;9.17;;;1.23;;
71965;SDS011;59836;52.132;5.442;2023-03-23T10:40:56;6.38;;;1.23;;
71965;SDS011;59836;52.132;5.442;2023-03-23T10:43:25;5.78;;;1.33;;
71965;SDS011;59836;52.132;5.442;2023-03-23T10:45:57;7.28;;;0.82;;
71965;SDS011;59836;52.132;5.442;2023-03-23T10:48:29;7.68;;;1.23;;
71965;SDS011;59836;52.132;5.442;2023-03-23T10:50:59;8.97;;;1.33;;
71965;SDS011;59836;52.132;5.442;2023-03-23T10:56:24;5.80;;;1.38;;
71965;SDS011;59836;52.132;5.442;2023-03-23T10:58:52;6.10;;;1.08;;
71965;SDS011;59836;52.132;5.442;2023-03-23T11:01:19;5.68;;;1.55;;
71965;SDS011;59836;52.132;5.442;2023-03-23T11:03:53;6.83;;;1.40;;
71965;SDS011;59836;52.132;5.442;2023-03-23T11:06:23;9.90;;;1.67;;
71965;SDS011;59836;52.132;5.442;2023-03-23T11:08:58;7.53;;;1.03;;
71965;SDS011;59836;52.132;5.442;2023-03-23T11:11:29;7.80;;;1.13;;
71965;SDS011;59836;52.132;5.442;2023-03-23T11:13:57;9.27;;;1.42;;
71965;SDS011;59836;52.132;5.442;2023-03-23T11:16:25;5.60;;;1.13;;
71965;SDS011;59836;52.132;5.442;2023-03-23T11:18:56;4.93;;;1.23;;
71965;SDS011;59836;52.132;5.442;2023-03-23T11:21:36;6.77;;;1.13;;
71965;SDS011;59836;52.132;5.442;2023-03-23T11:24:03;6.72;;;1.27;;
71965;SDS011;59836;52.132;5.442;2023-03-23T11:26:33;6.38;;;1.48;;
71965;SDS011;59836;52.132;5.442;2023-03-23T11:29:09;3.13;;;0.98;;
71965;SDS011;59836;52.132;5.442;2023-03-23T11:31:47;4.97;;;1.00;;
71965;SDS011;59836;52.132;5.442;2023-03-23T11:36:48;5.35;;;1.00;;
71965;SDS011;59836;52.132;5.442;2023-03-23T11:39:20;6.95;;;1.13;;
71965;SDS011;59836;52.132;5.442;2023-03-23T11:41:51;5.03;;;1.38;;
71965;SDS011;59836;52.132;5.442;2023-03-23T11:44:16;5.90;;;1.20;;
71965;SDS011;59836;52.132;5.442;2023-03-23T11:55:28;7.43;;;1.20;;
71965;SDS011;59836;52.132;5.442;2023-03-23T11:58:02;6.82;;;1.25;;
71965;SDS011;59836;52.132;5.442;2023-03-23T12:00:36;7.20;;;1.50;;
71965;SDS011;59836;52.132;5.442;2023-03-23T12:06:06;8.10;;;1.50;;
71965;SDS011;59836;52.132;5.442;2023-03-23T12:08:43;5.00;;;1.37;;
71965;SDS011;59836;52.132;5.442;2023-03-23T12:14:16;4.63;;;1.23;;
71965;SDS011;59836;52.132;5.442;2023-03-23T12:16:54;6.03;;;1.23;;
71965;SDS011;59836;52.132;5.442;2023-03-23T12:25:30;8.35;;;1.38;;
71965;SDS011;59836;52.132;5.442;2023-03-23T12:28:06;6.15;;;1.58;;
71965;SDS011;59836;52.132;5.442;2023-03-23T12:30:45;8.27;;;1.85;;
71965;SDS011;59836;52.132;5.442;2023-03-23T12:42:21;4.93;;;1.02;;
71965;SDS011;59836;52.132;5.442;2023-03-23T12:45:12;10.38;;;1.25;;
71965;SDS011;59836;52.132;5.442;2023-03-23T12:48:07;6.57;;;1.38;;
71965;SDS011;59836;52.132;5.442;2023-03-23T12:50:58;5.00;;;1.33;;
71965;SDS011;59836;52.132;5.442;2023-03-23T12:53:30;7.10;;;1.15;;
71965;SDS011;59836;52.132;5.442;2023-03-23T12:58:50;6.38;;;1.55;;
71965;SDS011;59836;52.132;5.442;2023-03-23T13:01:24;4.45;;;1.13;;
71965;SDS011;59836;52.132;5.442;2023-03-23T13:04:11;6.50;;;1.50;;
71965;SDS011;59836;52.132;5.442;2023-03-23T13:06:44;3.22;;;1.40;;
71965;SDS011;59836;52.132;5.442;2023-03-23T13:09:22;4.60;;;1.10;;
71965;SDS011;59836;52.132;5.442;2023-03-23T13:11:54;6.53;;;1.02;;
71965;SDS011;59836;52.132;5.442;2023-03-23T13:20:22;4.50;;;0.90;;
71965;SDS011;59836;52.132;5.442;2023-03-23T13:23:11;4.53;;;1.23;;
71965;SDS011;59836;52.132;5.442;2023-03-23T13:25:46;2.70;;;1.10;;
71965;SDS011;59836;52.132;5.442;2023-03-23T13:28:16;3.58;;;1.42;;
71965;SDS011;59836;52.132;5.442;2023-03-23T13:31:11;5.20;;;0.90;;
71965;SDS011;59836;52.132;5.442;2023-03-23T13:33:50;6.20;;;1.52;;
71965;SDS011;59836;52.132;5.442;2023-03-23T13:36:19;3.90;;;1.23;;
71965;SDS011;59836;52.132;5.442;2023-03-23T13:38:52;6.28;;;1.42;;
71965;SDS011;59836;52.132;5.442;2023-03-23T13:41:18;3.63;;;1.27;;
71965;SDS011;59836;52.132;5.442;2023-03-23T13:43:46;6.05;;;1.80;;
71965;SDS011;59836;52.132;5.442;2023-03-23T13:48:50;7.82;;;1.45;;
71965;SDS011;59836;52.132;5.442;2023-03-23T13:51:33;6.20;;;1.10;;
71965;SDS011;59836;52.132;5.442;2023-03-23T13:54:15;6.05;;;1.20;;
71965;SDS011;59836;52.132;5.442;2023-03-23T13:56:57;4.53;;;1.35;;
71965;SDS011;59836;52.132;5.442;2023-03-23T14:01:52;3.80;;;1.20;;
71965;SDS011;59836;52.132;5.442;2023-03-23T14:04:19;3.75;;;1.23;;
71965;SDS011;59836;52.132;5.442;2023-03-23T14:06:46;6.47;;;1.40;;
71965;SDS011;59836;52.132;5.442;2023-03-23T14:09:18;5.93;;;1.80;;
71965;SDS011;59836;52.132;5.442;2023-03-23T14:11:49;4.80;;;1.10;;
71965;SDS011;59836;52.132;5.442;2023-03-23T14:14:30;2.97;;;1.00;;
71965;SDS011;59836;52.132;5.442;2023-03-23T14:17:14;2.22;;;1.05;;
71965;SDS011;59836;52.132;5.442;2023-03-23T14:19:42;4.63;;;1.20;;
71965;SDS011;59836;52.132;5.442;2023-03-23T14:22:17;4.93;;;1.07;;
71965;SDS011;59836;52.132;5.442;2023-03-23T14:24:44;3.30;;;1.17;;
71965;SDS011;59836;52.132;5.442;2023-03-23T14:27:12;4.32;;;1.40;;
71965;SDS011;59836;52.132;5.442;2023-03-23T14:29:40;4.97;;;1.48;;
71965;SDS011;59836;52.132;5.442;2023-03-23T14:32:06;6.63;;;1.40;;
71965;SDS011;59836;52.132;5.442;2023-03-23T14:34:35;4.15;;;1.10;;
71965;SDS011;59836;52.132;5.442;2023-03-23T14:37:01;5.80;;;1.40;;
71965;SDS011;59836;52.132;5.442;2023-03-23T14:39:28;4.80;;;1.25;;
71965;SDS011;59836;52.132;5.442;2023-03-23T14:42:02;5.35;;;1.60;;
71965;SDS011;59836;52.132;5.442;2023-03-23T14:44:30;5.20;;;1.30;;
71965;SDS011;59836;52.132;5.442;2023-03-23T14:47:00;3.95;;;1.42;;
71965;SDS011;59836;52.132;5.442;2023-03-23T14:49:30;3.70;;;1.17;;
71965;SDS011;59836;52.132;5.442;2023-03-23T14:52:12;5.15;;;1.30;;
71965;SDS011;59836;52.132;5.442;2023-03-23T14:54:40;3.90;;;1.30;;
71965;SDS011;59836;52.132;5.442;2023-03-23T14:57:14;4.13;;;1.15;;
71965;SDS011;59836;52.132;5.442;2023-03-23T14:59:48;4.90;;;1.33;;
71965;SDS011;59836;52.132;5.442;2023-03-23T15:02:19;6.73;;;1.70;;
71965;SDS011;59836;52.132;5.442;2023-03-23T15:04:50;6.18;;;0.95;;
71965;SDS011;59836;52.132;5.442;2023-03-23T15:07:19;8.07;;;1.70;;
71965;SDS011;59836;52.132;5.442;2023-03-23T15:09:46;7.63;;;1.30;;
71965;SDS011;59836;52.132;5.442;2023-03-23T15:12:22;5.20;;;1.67;;
71965;SDS011;59836;52.132;5.442;2023-03-23T15:14:53;7.15;;;1.30;;
71965;SDS011;59836;52.132;5.442;2023-03-23T15:17:23;5.97;;;1.17;;
71965;SDS011;59836;52.132;5.442;2023-03-23T15:19:52;4.20;;;1.35;;
71965;SDS011;59836;52.132;5.442;2023-03-23T15:22:27;3.97;;;0.90;;
71965;SDS011;59836;52.132;5.442;2023-03-23T15:25:02;5.32;;;0.98;;
71965;SDS011;59836;52.132;5.442;2023-03-23T15:27:39;3.08;;;1.52;;
71965;SDS011;59836;52.132;5.442;2023-03-23T15:30:27;7.18;;;1.55;;
71965;SDS011;59836;52.132;5.442;2023-03-23T15:33:00;5.35;;;1.50;;
71965;SDS011;59836;52.132;5.442;2023-03-23T15:35:35;6.80;;;1.13;;
71965;SDS011;59836;52.132;5.442;2023-03-23T15:38:04;4.03;;;1.23;;
71965;SDS011;59836;52.132;5.442;2023-03-23T15:40:35;9.35;;;1.30;;
71965;SDS011;59836;52.132;5.442;2023-03-23T15:43:14;5.15;;;1.08;;
71965;SDS011;59836;52.132;5.442;2023-03-23T15:48:33;4.53;;;1.43;;
71965;SDS011;59836;52.132;5.442;2023-03-23T15:51:11;7.07;;;1.38;;
71965;SDS011;59836;52.132;5.442;2023-03-23T15:53:38;5.97;;;1.85;;
71965;SDS011;59836;52.132;5.442;2023-03-23T15:56:05;5.40;;;1.15;;
71965;SDS011;59836;52.132;5.442;2023-03-23T15:58:32;7.20;;;1.73;;
71965;SDS011;59836;52.132;5.442;2023-03-23T16:01:01;7.37;;;1.30;;
71965;SDS011;59836;52.132;5.442;2023-03-23T16:03:38;7.65;;;1.95;;
71965;SDS011;59836;52.132;5.442;2023-03-23T16:06:26;5.20;;;1.45;;
71965;SDS011;59836;52.132;5.442;2023-03-23T16:08:55;5.53;;;1.40;;
71965;SDS011;59836;52.132;5.442;2023-03-23T16:11:23;5.13;;;1.30;;
71965;SDS011;59836;52.132;5.442;2023-03-23T16:13:52;5.10;;;1.27;;
71965;SDS011;59836;52.132;5.442;2023-03-23T16:16:20;5.13;;;1.95;;
71965;SDS011;59836;52.132;5.442;2023-03-23T16:18:51;5.82;;;1.40;;
71965;SDS011;59836;52.132;5.442;2023-03-23T16:21:18;4.85;;;1.30;;
71965;SDS011;59836;52.132;5.442;2023-03-23T16:23:44;6.35;;;1.48;;
71965;SDS011;59836;52.132;5.442;2023-03-23T16:26:12;5.70;;;1.03;;
71965;SDS011;59836;52.132;5.442;2023-03-23T16:28:40;4.75;;;1.25;;
71965;SDS011;59836;52.132;5.442;2023-03-23T16:31:08;5.93;;;0.93;;
71965;SDS011;59836;52.132;5.442;2023-03-23T16:33:34;4.25;;;1.25;;